Time,TemperatureF,DewpointF,PressureIn,WindDirection,WindDirectionDegrees,WindSpeedMPH,WindSpeedGustMPH,Humidity,HourlyPrecipIn,Conditions,Clouds,dailyrainin,SoftwareType,DateUTC
2013-12-18 00:02:00,4.4,1.6,30.09,WSW,249,0.0,0.0,88,0.00,,BKN120,0.00,VWS V14.01,2013-12-18 06:02:00,
2013-12-18 00:07:00,4.4,1.6,30.09,WSW,249,0.0,0.0,88,0.00,,BKN120,0.00,VWS V14.01,2013-12-18 06:07:00,
2013-12-18 00:12:00,4.6,1.8,30.08,WSW,249,0.0,0.0,88,0.00,,BKN120,0.00,VWS V14.01,2013-12-18 06:12:00,
2013-12-18 00:17:00,4.7,1.9,30.08,WSW,248,0.0,0.0,88,0.00,,BKN120,0.00,VWS V14.01,2013-12-18 06:17:00,
2013-12-18 00:22:00,4.5,1.2,30.09,West,273,2.0,2.0,86,0.00,,BKN120,0.00,VWS V14.01,2013-12-18 06:22:00,
2013-12-18 00:26:00,3.8,0.8,30.09,West,281,0.0,2.0,87,0.00,,BKN120,0.00,VWS V14.01,2013-12-18 06:26:00,
2013-12-18 00:31:00,3.9,1.1,30.09,West,267,0.0,0.0,88,0.00,,SCT120,0.00,VWS V14.01,2013-12-18 06:31:00,
2013-12-18 00:36:00,3.9,1.1,30.08,West,267,0.0,0.0,88,0.00,,CLR,0.00,VWS V14.01,2013-12-18 06:36:00,
2013-12-18 00:41:00,4.0,1.2,30.08,West,267,0.0,0.0,88,0.00,,CLR,0.00,VWS V14.01,2013-12-18 06:41:00,
2013-12-18 00:46:00,4.6,2.1,30.08,West,267,0.0,0.0,89,0.00,,CLR,0.00,VWS V14.01,2013-12-18 06:46:00,
2013-12-18 00:51:00,5.0,2.5,30.09,West,267,0.0,0.0,89,0.00,,CLR,0.00,VWS V14.01,2013-12-18 06:51:00,
2013-12-18 00:56:00,5.1,2.3,30.09,West,267,0.0,0.0,88,0.00,,SCT120,0.00,VWS V14.01,2013-12-18 06:56:00,
2013-12-18 01:01:00,5.4,2.6,30.09,WSW,252,0.0,1.0,88,0.00,,CLR,0.00,VWS V14.01,2013-12-18 07:01:00,
2013-12-18 01:06:00,5.2,2.2,30.09,WSW,250,2.0,2.0,87,0.00,,CLR,0.00,VWS V14.01,2013-12-18 07:06:00,
2013-12-18 01:11:00,4.6,1.3,30.09,WSW,252,0.0,3.0,86,0.00,,CLR,0.00,VWS V14.01,2013-12-18 07:11:00,
2013-12-18 01:16:00,4.2,0.9,30.08,WSW,250,0.0,3.0,86,0.00,,SCT120,0.00,VWS V14.01,2013-12-18 07:16:00,
2013-12-18 01:21:00,4.3,1.3,30.08,SW,233,0.0,3.0,87,0.00,,CLR,0.00,VWS V14.01,2013-12-18 07:21:00,
2013-12-18 01:26:00,4.8,2.0,30.07,SW,219,1.0,3.0,88,0.00,,CLR,0.00,VWS V14.01,2013-12-18 07:26:00,
2013-12-18 01:31:00,5.1,2.3,30.07,SE,139,0.0,0.0,88,0.00,,CLR,0.00,VWS V14.01,2013-12-18 07:31:00,
2013-12-18 01:36:00,5.0,2.0,30.07,SE,140,0.0,0.0,87,0.00,,SCT110,0.00,VWS V14.01,2013-12-18 07:36:00,
2013-12-18 01:41:00,5.1,2.1,30.06,SE,140,0.0,0.0,87,0.00,,SCT110,0.00,VWS V14.01,2013-12-18 07:41:00,
2013-12-18 01:46:00,5.3,2.5,30.06,SE,139,0.0,0.0,88,0.00,,SCT110,0.00,VWS V14.01,2013-12-18 07:46:00,
2013-12-18 01:51:00,5.5,2.7,30.06,SE,140,0.0,0.0,88,0.00,,SCT110,0.00,VWS V14.01,2013-12-18 07:51:00,
2013-12-18 01:56:00,5.6,2.8,30.06,SE,141,0.0,1.0,88,0.00,,CLR,0.00,VWS V14.01,2013-12-18 07:56:00,
2013-12-18 02:01:00,5.6,2.6,30.06,SE,141,0.0,0.0,87,0.00,,SCT110,0.00,VWS V14.01,2013-12-18 08:01:00,
2013-12-18 02:06:00,5.7,2.9,30.06,SE,141,0.0,0.0,88,0.00,,SCT110,0.00,VWS V14.01,2013-12-18 08:06:00,
2013-12-18 02:11:00,5.8,3.0,30.06,SE,141,0.0,0.0,88,0.00,,SCT110,0.00,VWS V14.01,2013-12-18 08:11:00,
2013-12-18 02:16:00,5.8,3.0,30.06,SE,134,0.0,1.0,88,0.00,,CLR,0.00,VWS V14.01,2013-12-18 08:16:00,
2013-12-18 02:21:00,5.8,3.0,30.05,SE,134,0.0,1.0,88,0.00,,SCT110,0.00,VWS V14.01,2013-12-18 08:21:00,
2013-12-18 02:26:00,5.9,2.9,30.05,SE,136,0.0,1.0,87,0.00,,SCT110,0.00,VWS V14.01,2013-12-18 08:26:00,
2013-12-18 02:31:00,5.9,3.1,30.05,SSE,165,0.0,1.0,88,0.00,,CLR,0.00,VWS V14.01,2013-12-18 08:31:00,
2013-12-18 02:36:00,5.9,3.1,30.04,ESE,115,0.0,1.0,88,0.00,,SCT120,0.00,VWS V14.01,2013-12-18 08:36:00,
2013-12-18 02:41:00,5.9,3.1,30.04,SE,125,0.0,1.0,88,0.00,,SCT120,0.00,VWS V14.01,2013-12-18 08:41:00,
2013-12-18 02:46:00,6.2,3.4,30.04,SE,132,0.0,1.0,88,0.00,,SCT120,0.00,VWS V14.01,2013-12-18 08:46:00,
2013-12-18 02:51:00,6.2,3.4,30.04,SSE,156,0.0,1.0,88,0.00,,CLR,0.00,VWS V14.01,2013-12-18 08:51:00,
2013-12-18 02:56:00,6.3,3.5,30.05,SSE,162,0.0,1.0,88,0.00,,CLR,0.00,VWS V14.01,2013-12-18 08:56:00,
2013-12-18 03:01:00,6.3,3.5,30.04,SSE,159,0.0,0.0,88,0.00,,CLR,0.00,VWS V14.01,2013-12-18 09:01:00,
2013-12-18 03:06:00,6.4,3.6,30.04,SE,139,0.0,1.0,88,0.00,,CLR,0.00,VWS V14.01,2013-12-18 09:06:00,
2013-12-18 03:11:00,6.5,3.7,30.04,SE,145,0.0,1.0,88,0.00,,CLR,0.00,VWS V14.01,2013-12-18 09:11:00,
2013-12-18 03:16:00,6.6,3.8,30.04,SE,141,0.0,1.0,88,0.00,,CLR,0.00,VWS V14.01,2013-12-18 09:16:00,
2013-12-18 03:21:00,6.7,3.7,30.03,SE,139,0.0,1.0,87,0.00,,CLR,0.00,VWS V14.01,2013-12-18 09:21:00,
2013-12-18 03:26:00,6.8,3.8,30.03,SE,141,0.0,1.0,87,0.00,,CLR,0.00,VWS V14.01,2013-12-18 09:26:00,
2013-12-18 03:31:00,7.0,4.0,30.03,SSE,156,0.0,0.0,87,0.00,,CLR,0.00,VWS V14.01,2013-12-18 09:31:00,
2013-12-18 03:36:00,7.2,4.4,30.03,SE,132,0.0,1.0,88,0.00,,SCT080,0.00,VWS V14.01,2013-12-18 09:36:00,
2013-12-18 03:41:00,7.5,4.4,30.03,SE,136,0.0,1.0,87,0.00,,SCT080,0.00,VWS V14.01,2013-12-18 09:41:00,
2013-12-18 03:46:00,7.7,4.7,30.03,SSE,155,1.0,1.0,87,0.00,,SCT080,0.00,VWS V14.01,2013-12-18 09:46:00,
2013-12-18 03:51:00,7.9,4.8,30.02,SE,141,0.0,2.0,87,0.00,,BKN080,0.00,VWS V14.01,2013-12-18 09:51:00,
2013-12-18 03:56:00,8.0,4.9,30.01,SSE,152,0.0,3.0,87,0.00,,CLR,0.00,VWS V14.01,2013-12-18 09:56:00,
2013-12-18 04:01:00,8.2,4.9,30.01,SSE,160,1.0,3.0,86,0.00,,BKN080,0.00,VWS V14.01,2013-12-18 10:01:00,
2013-12-18 04:06:00,8.5,5.2,30.01,SSE,159,0.0,5.0,86,0.00,,BKN080,0.00,VWS V14.01,2013-12-18 10:06:00,
2013-12-18 04:11:00,8.7,5.1,30.01,South,180,1.0,5.0,85,0.00,,BKN080,0.00,VWS V14.01,2013-12-18 10:11:00,
2013-12-18 04:16:00,8.8,5.2,30.00,SE,138,0.0,5.0,85,0.00,,CLR,0.00,VWS V14.01,2013-12-18 10:16:00,
2013-12-18 04:21:00,9.0,5.4,30.00,South,169,0.0,5.0,85,0.00,,BKN080,0.00,VWS V14.01,2013-12-18 10:21:00,
2013-12-18 04:26:00,9.2,5.6,30.00,SSE,166,2.0,5.0,85,0.00,,BKN080,0.00,VWS V14.01,2013-12-18 10:26:00,
2013-12-18 04:31:00,9.4,5.8,29.99,SE,140,0.0,4.0,85,0.00,,BKN080,0.00,VWS V14.01,2013-12-18 10:31:00,
2013-12-18 04:36:00,9.6,5.8,29.99,SSE,151,1.0,4.0,84,0.00,,OVC080,0.00,VWS V14.01,2013-12-18 10:36:00,
2013-12-18 04:41:00,9.8,5.9,29.99,SSW,200,1.0,4.0,84,0.00,,OVC080,0.00,VWS V14.01,2013-12-18 10:41:00,
2013-12-18 04:46:00,9.7,5.6,30.00,South,174,0.0,4.0,83,0.00,,OVC080,0.00,VWS V14.01,2013-12-18 10:46:00,
2013-12-18 04:51:00,9.6,5.5,29.99,SE,145,1.0,4.0,83,0.00,,OVC080,0.00,VWS V14.01,2013-12-18 10:51:00,
2013-12-18 04:56:00,9.6,5.5,29.99,SSE,148,0.0,4.0,83,0.00,,OVC080,0.00,VWS V14.01,2013-12-18 10:56:00,
2013-12-18 05:01:00,9.7,5.6,29.98,ESE,120,2.0,4.0,83,0.00,,OVC080,0.00,VWS V14.01,2013-12-18 11:01:00,
2013-12-18 05:06:00,9.8,5.7,29.97,SE,131,2.0,4.0,83,0.00,,OVC080,0.00,VWS V14.01,2013-12-18 11:06:00,
2013-12-18 05:11:00,10.0,5.9,29.97,ESE,113,1.0,4.0,83,0.00,,OVC080,0.00,VWS V14.01,2013-12-18 11:11:00,
2013-12-18 05:14:00,10.0,5.9,29.97,SE,136,3.0,4.0,83,0.00,,OVC080,0.00,VWS V14.01,2013-12-18 11:14:00,
2013-12-18 05:19:00,10.2,6.1,29.96,SE,136,0.0,4.0,83,0.00,,OVC080,0.00,VWS V14.01,2013-12-18 11:19:00,
2013-12-18 05:24:00,10.3,6.2,29.96,SE,132,0.0,5.0,83,0.00,,OVC080,0.00,VWS V14.01,2013-12-18 11:24:00,
2013-12-18 05:29:00,10.4,6.0,29.96,ESE,111,1.0,2.0,82,0.00,,OVC080,0.00,VWS V14.01,2013-12-18 11:29:00,
2013-12-18 05:34:00,10.3,5.9,29.95,ESE,119,2.0,3.0,82,0.00,,OVC090,0.00,VWS V14.01,2013-12-18 11:34:00,
2013-12-18 05:39:00,10.3,5.9,29.94,SE,145,1.0,4.0,82,0.00,,OVC090,0.00,VWS V14.01,2013-12-18 11:39:00,
2013-12-18 05:44:00,10.4,6.0,29.93,ESE,122,1.0,5.0,82,0.00,,OVC090,0.00,VWS V14.01,2013-12-18 11:44:00,
2013-12-18 05:49:00,10.4,6.0,29.93,ESE,109,3.0,5.0,82,0.00,,SCT120,0.00,VWS V14.01,2013-12-18 11:49:00,
2013-12-18 05:54:00,10.5,6.4,29.93,SE,128,3.0,7.0,83,0.00,,SCT120,0.00,VWS V14.01,2013-12-18 11:54:00,
2013-12-18 05:59:00,10.5,6.1,29.93,ESE,123,1.0,3.0,82,0.00,,SCT120,0.00,VWS V14.01,2013-12-18 11:59:00,
2013-12-18 06:04:00,10.4,6.0,29.92,ESE,110,2.0,3.0,82,0.00,,SCT120,0.00,VWS V14.01,2013-12-18 12:04:00,
2013-12-18 06:09:00,10.3,6.2,29.92,ESE,117,1.0,3.0,83,0.00,,SCT120,0.00,VWS V14.01,2013-12-18 12:09:00,
2013-12-18 06:14:00,10.6,6.7,29.92,ESE,119,3.0,4.0,84,0.00,,SCT120,0.00,VWS V14.01,2013-12-18 12:14:00,
2013-12-18 06:19:00,10.9,7.0,29.91,ESE,109,4.0,5.0,84,0.00,,SCT120,0.00,VWS V14.01,2013-12-18 12:19:00,
2013-12-18 06:23:00,11.1,7.2,29.90,ESE,120,4.0,7.0,84,0.00,,SCT120,0.00,VWS V14.01,2013-12-18 12:23:00,
2013-12-18 06:28:00,11.4,7.5,29.90,SE,127,2.0,6.0,84,0.00,,SCT120,0.00,VWS V14.01,2013-12-18 12:28:00,
2013-12-18 06:33:00,11.7,7.8,29.90,ESE,120,3.0,7.0,84,0.00,,SCT120,0.00,VWS V14.01,2013-12-18 12:33:00,
2013-12-18 06:38:00,11.9,8.0,29.90,SE,138,2.0,7.0,84,0.00,,SCT120,0.00,VWS V14.01,2013-12-18 12:38:00,
2013-12-18 06:43:00,12.2,8.3,29.89,ESE,110,3.0,7.0,84,0.00,,SCT120,0.00,VWS V14.01,2013-12-18 12:43:00,
2013-12-18 06:48:00,12.3,8.4,29.88,SSE,148,3.0,7.0,84,0.00,,SCT090,0.00,VWS V14.01,2013-12-18 12:48:00,
2013-12-18 06:53:00,12.5,8.6,29.88,ESE,122,2.0,7.0,84,0.00,,SCT090,0.00,VWS V14.01,2013-12-18 12:53:00,
2013-12-18 06:58:00,12.6,8.7,29.88,ESE,117,1.0,4.0,84,0.00,,OVC120,0.00,VWS V14.01,2013-12-18 12:58:00,
2013-12-18 07:03:00,12.8,8.9,29.88,SE,134,1.0,4.0,84,0.00,,OVC120,0.00,VWS V14.01,2013-12-18 13:03:00,
2013-12-18 07:08:00,12.9,9.0,29.87,SE,139,3.0,5.0,84,0.00,,OVC120,0.00,VWS V14.01,2013-12-18 13:08:00,
2013-12-18 07:13:00,13.2,9.3,29.87,SE,134,2.0,5.0,84,0.00,,OVC120,0.00,VWS V14.01,2013-12-18 13:13:00,
2013-12-18 07:18:00,13.4,9.7,29.86,SE,132,3.0,8.0,85,0.00,,OVC120,0.00,VWS V14.01,2013-12-18 13:18:00,
2013-12-18 07:23:00,13.6,9.9,29.86,ESE,119,2.0,8.0,85,0.00,,OVC120,0.00,VWS V14.01,2013-12-18 13:23:00,
2013-12-18 07:28:00,13.7,10.0,29.86,ESE,123,4.0,6.0,85,0.00,,OVC120,0.00,VWS V14.01,2013-12-18 13:28:00,
2013-12-18 07:33:00,13.9,10.2,29.86,ESE,112,6.0,7.0,85,0.00,,OVC120,0.00,VWS V14.01,2013-12-18 13:33:00,
2013-12-18 07:38:00,13.9,10.2,29.85,ESE,123,2.0,7.0,85,0.00,,OVC120,0.00,VWS V14.01,2013-12-18 13:38:00,
2013-12-18 07:43:00,14.0,10.3,29.85,ESE,121,4.0,7.0,85,0.00,,OVC120,0.00,VWS V14.01,2013-12-18 13:43:00,
2013-12-18 07:48:00,14.0,10.3,29.84,ESE,106,5.0,7.0,85,0.00,,OVC120,0.00,VWS V14.01,2013-12-18 13:48:00,
2013-12-18 07:53:00,14.1,10.4,29.85,ESE,113,1.0,7.0,85,0.00,,OVC120,0.00,VWS V14.01,2013-12-18 13:53:00,
2013-12-18 07:58:00,14.3,10.6,29.84,ESE,119,4.0,6.0,85,0.00,,OVC120,0.00,VWS V14.01,2013-12-18 13:58:00,
2013-12-18 08:03:00,14.4,10.7,29.83,ESE,119,3.0,7.0,85,0.00,,OVC120,0.00,VWS V14.01,2013-12-18 14:03:00,
2013-12-18 08:08:00,14.5,10.8,29.83,ESE,122,4.0,10.0,85,0.00,,OVC120,0.00,VWS V14.01,2013-12-18 14:08:00,
2013-12-18 08:13:00,14.7,11.0,29.83,ESE,108,7.0,10.0,85,0.00,,OVC120,0.00,VWS V14.01,2013-12-18 14:13:00,
2013-12-18 08:18:00,14.8,11.1,29.82,ESE,115,4.0,10.0,85,0.00,,OVC120,0.00,VWS V14.01,2013-12-18 14:18:00,
2013-12-18 08:23:00,14.9,11.2,29.82,SE,129,4.0,10.0,85,0.00,,OVC120,0.00,VWS V14.01,2013-12-18 14:23:00,
2013-12-18 08:28:00,14.9,11.2,29.82,SE,127,2.0,5.0,85,0.00,,OVC120,0.00,VWS V14.01,2013-12-18 14:28:00,
2013-12-18 08:33:00,15.1,11.4,29.81,SE,136,5.0,7.0,85,0.00,,OVC120,0.00,VWS V14.01,2013-12-18 14:33:00,
2013-12-18 08:38:00,15.1,11.1,29.81,SE,127,2.0,7.0,84,0.00,,OVC120,0.00,VWS V14.01,2013-12-18 14:38:00,
2013-12-18 08:43:00,15.2,11.2,29.81,SE,138,5.0,7.0,84,0.00,,OVC120,0.00,VWS V14.01,2013-12-18 14:43:00,
2013-12-18 08:48:00,15.4,11.4,29.80,SE,124,2.0,7.0,84,0.00,,BKN120,0.00,VWS V14.01,2013-12-18 14:48:00,
2013-12-18 08:53:00,15.5,11.5,29.79,ESE,115,1.0,7.0,84,0.00,,BKN120,0.00,VWS V14.01,2013-12-18 14:53:00,
2013-12-18 08:58:00,15.7,11.7,29.79,SSE,153,4.0,5.0,84,0.00,,BKN120,0.00,VWS V14.01,2013-12-18 14:58:00,
2013-12-18 09:03:00,16.0,11.8,29.78,SE,129,4.0,5.0,83,0.00,,BKN120,0.00,VWS V14.01,2013-12-18 15:03:00,
2013-12-18 09:08:00,16.4,12.1,29.79,SE,141,3.0,6.0,83,0.00,,BKN120,0.00,VWS V14.01,2013-12-18 15:08:00,
2013-12-18 09:13:00,16.7,12.2,29.79,SE,137,3.0,6.0,82,0.00,,BKN120,0.00,VWS V14.01,2013-12-18 15:13:00,
2013-12-18 09:18:00,17.1,12.6,29.79,ESE,119,3.0,6.0,82,0.00,,BKN120,0.00,VWS V14.01,2013-12-18 15:18:00,
2013-12-18 09:23:00,17.6,12.8,29.78,SE,146,4.0,7.0,81,0.00,,BKN120,0.00,VWS V14.01,2013-12-18 15:23:00,
2013-12-18 09:28:00,18.2,13.1,29.78,SSE,149,4.0,9.0,80,0.00,,BKN120,0.00,VWS V14.01,2013-12-18 15:28:00,
2013-12-18 09:33:00,18.8,13.4,29.77,South,179,6.0,9.0,79,0.00,,CLR,0.00,VWS V14.01,2013-12-18 15:33:00,
2013-12-18 09:38:00,19.4,13.7,29.77,South,179,5.0,12.0,78,0.00,,CLR,0.00,VWS V14.01,2013-12-18 15:38:00,
2013-12-18 09:43:00,20.1,14.1,29.77,South,177,7.0,12.0,77,0.00,,CLR,0.00,VWS V14.01,2013-12-18 15:43:00,
2013-12-18 09:48:00,20.8,14.4,29.77,SSE,154,3.0,15.0,76,0.00,,CLR,0.00,VWS V14.01,2013-12-18 15:48:00,
2013-12-18 09:53:00,21.3,14.6,29.77,SSE,161,14.0,15.0,75,0.00,,CLR,0.00,VWS V14.01,2013-12-18 15:53:00,
2013-12-18 09:58:00,21.7,14.7,29.75,SSE,149,5.0,13.0,74,0.00,,CLR,0.00,VWS V14.01,2013-12-18 15:58:00,
2013-12-18 10:03:00,22.1,14.8,29.75,South,169,6.0,17.0,73,0.00,,CLR,0.00,VWS V14.01,2013-12-18 16:03:00,
2013-12-18 10:08:00,22.3,15.0,29.76,SSE,150,9.0,17.0,73,0.00,,CLR,0.00,VWS V14.01,2013-12-18 16:08:00,
2013-12-18 10:13:00,22.5,15.2,29.76,SSE,158,10.0,17.0,73,0.00,,CLR,0.00,VWS V14.01,2013-12-18 16:13:00,
2013-12-18 10:18:00,22.7,15.4,29.75,SSW,194,7.0,17.0,73,0.00,,CLR,0.00,VWS V14.01,2013-12-18 16:18:00,
2013-12-18 10:23:00,22.9,15.6,29.74,SE,143,7.0,17.0,73,0.00,,CLR,0.00,VWS V14.01,2013-12-18 16:23:00,
2013-12-18 10:28:00,23.1,15.8,29.74,South,169,7.0,7.0,73,0.00,,CLR,0.00,VWS V14.01,2013-12-18 16:28:00,
2013-12-18 10:33:00,23.4,15.7,29.73,SSE,153,4.0,10.0,72,0.00,,CLR,0.00,VWS V14.01,2013-12-18 16:33:00,
2013-12-18 10:38:00,23.6,15.9,29.73,South,182,6.0,14.0,72,0.00,,CLR,0.00,VWS V14.01,2013-12-18 16:38:00,
2013-12-18 10:43:00,24.0,16.3,29.73,SSE,156,6.0,14.0,72,0.00,,CLR,0.00,VWS V14.01,2013-12-18 16:43:00,
2013-12-18 10:48:00,24.6,16.5,29.74,South,174,6.0,14.0,71,0.00,,CLR,0.00,VWS V14.01,2013-12-18 16:48:00,
2013-12-18 10:53:00,25.2,17.1,29.74,South,190,3.0,14.0,71,0.00,,CLR,0.00,VWS V14.01,2013-12-18 16:53:00,
2013-12-18 10:58:00,25.8,17.4,29.74,SSE,165,7.0,8.0,70,0.00,,CLR,0.00,VWS V14.01,2013-12-18 16:58:00,
2013-12-18 11:03:00,26.3,17.9,29.74,South,185,11.0,12.0,70,0.00,,CLR,0.00,VWS V14.01,2013-12-18 17:03:00,
2013-12-18 11:08:00,26.7,18.2,29.73,SSW,201,4.0,12.0,70,0.00,,CLR,0.00,VWS V14.01,2013-12-18 17:08:00,
2013-12-18 11:13:00,27.1,18.3,29.73,SSW,210,7.0,15.0,69,0.00,,CLR,0.00,VWS V14.01,2013-12-18 17:13:00,
2013-12-18 11:18:00,27.4,18.6,29.73,SW,218,7.0,15.0,69,0.00,,CLR,0.00,VWS V14.01,2013-12-18 17:18:00,
2013-12-18 11:23:00,27.5,18.7,29.72,SW,218,3.0,15.0,69,0.00,,CLR,0.00,VWS V14.01,2013-12-18 17:23:00,
2013-12-18 11:28:00,27.7,18.9,29.72,SSE,166,13.0,14.0,69,0.00,,CLR,0.00,VWS V14.01,2013-12-18 17:28:00,
2013-12-18 11:33:00,27.7,18.9,29.72,SSW,208,5.0,14.0,69,0.00,,CLR,0.00,VWS V14.01,2013-12-18 17:33:00,
2013-12-18 11:38:00,27.7,18.9,29.72,SW,226,6.0,14.0,69,0.00,,CLR,0.00,VWS V14.01,2013-12-18 17:38:00,
2013-12-18 11:43:00,27.7,18.9,29.71,SSW,205,6.0,14.0,69,0.00,,CLR,0.00,VWS V14.01,2013-12-18 17:43:00,
2013-12-18 11:48:00,27.6,18.8,29.71,SW,228,4.0,14.0,69,0.00,,CLR,0.00,VWS V14.01,2013-12-18 17:48:00,
2013-12-18 11:53:00,27.6,19.1,29.71,SSW,203,5.0,14.0,70,0.00,,CLR,0.00,VWS V14.01,2013-12-18 17:53:00,
2013-12-18 11:58:00,27.7,19.2,29.70,SSW,197,5.0,7.0,70,0.00,,CLR,0.00,VWS V14.01,2013-12-18 17:58:00,
2013-12-18 12:03:00,27.8,19.3,29.70,SSW,207,5.0,10.0,70,0.00,,CLR,0.00,VWS V14.01,2013-12-18 18:03:00,
2013-12-18 12:08:00,27.8,19.3,29.70,SSW,208,4.0,10.0,70,0.00,,CLR,0.00,VWS V14.01,2013-12-18 18:08:00,
2013-12-18 12:13:00,28.0,19.5,29.69,SSW,210,6.0,10.0,70,0.00,,CLR,0.00,VWS V14.01,2013-12-18 18:13:00,
2013-12-18 12:18:00,28.0,19.5,29.69,SW,224,6.0,10.0,70,0.00,,CLR,0.00,VWS V14.01,2013-12-18 18:18:00,
2013-12-18 12:23:00,28.1,19.6,29.69,SSW,198,5.0,10.0,70,0.00,,CLR,0.00,VWS V14.01,2013-12-18 18:23:00,
2013-12-18 12:28:00,28.2,19.7,29.69,SSW,211,4.0,6.0,70,0.00,,CLR,0.00,VWS V14.01,2013-12-18 18:28:00,
2013-12-18 12:33:00,28.5,20.0,29.69,SSW,210,3.0,6.0,70,0.00,,CLR,0.00,VWS V14.01,2013-12-18 18:33:00,
2013-12-18 12:38:00,28.9,20.4,29.69,SW,233,3.0,6.0,70,0.00,,CLR,0.00,VWS V14.01,2013-12-18 18:38:00,
2013-12-18 12:43:00,29.3,20.4,29.68,SSW,205,4.0,6.0,69,0.00,,CLR,0.00,VWS V14.01,2013-12-18 18:43:00,
2013-12-18 12:48:00,29.6,20.7,29.68,SW,221,2.0,6.0,69,0.00,,CLR,0.00,VWS V14.01,2013-12-18 18:48:00,
2013-12-18 12:53:00,30.1,21.2,29.68,WSW,238,2.0,6.0,69,0.00,,CLR,0.00,VWS V14.01,2013-12-18 18:53:00,
2013-12-18 12:58:00,30.4,21.1,29.69,WSW,238,2.0,4.0,68,0.00,,CLR,0.00,VWS V14.01,2013-12-18 18:58:00,
2013-12-18 13:03:00,30.5,21.2,29.68,WSW,237,5.0,6.0,68,0.00,,CLR,0.00,VWS V14.01,2013-12-18 19:03:00,
2013-12-18 13:08:00,30.8,21.5,29.68,WSW,246,5.0,7.0,68,0.00,,CLR,0.00,VWS V14.01,2013-12-18 19:08:00,
2013-12-18 13:13:00,30.9,21.6,29.68,SW,222,3.0,7.0,68,0.00,,CLR,0.00,VWS V14.01,2013-12-18 19:13:00,
2013-12-18 13:18:00,31.2,21.9,29.68,SW,235,4.0,7.0,68,0.00,,CLR,0.00,VWS V14.01,2013-12-18 19:18:00,
2013-12-18 13:23:00,31.4,22.1,29.68,SW,222,4.0,7.0,68,0.00,,CLR,0.00,VWS V14.01,2013-12-18 19:23:00,
2013-12-18 13:28:00,31.4,22.1,29.68,SW,225,2.0,3.0,68,0.00,,CLR,0.00,VWS V14.01,2013-12-18 19:28:00,
2013-12-18 13:33:00,31.5,22.2,29.68,SW,224,4.0,4.0,68,0.00,,CLR,0.00,VWS V14.01,2013-12-18 19:33:00,
2013-12-18 13:38:00,31.6,22.3,29.68,WSW,238,2.0,4.0,68,0.00,,CLR,0.00,VWS V14.01,2013-12-18 19:38:00,
2013-12-18 13:43:00,31.7,22.4,29.68,WSW,238,3.0,4.0,68,0.00,,CLR,0.00,VWS V14.01,2013-12-18 19:43:00,
2013-12-18 13:48:00,31.9,22.5,29.68,WSW,239,2.0,5.0,68,0.00,,CLR,0.00,VWS V14.01,2013-12-18 19:48:00,
2013-12-18 13:53:00,32.0,22.6,29.68,SW,235,3.0,6.0,68,0.00,,CLR,0.00,VWS V14.01,2013-12-18 19:53:00,
2013-12-18 13:58:00,32.2,22.8,29.68,SW,233,3.0,3.0,68,0.00,,CLR,0.00,VWS V14.01,2013-12-18 19:58:00,
2013-12-18 14:03:00,32.5,23.1,29.68,WSW,248,2.0,4.0,68,0.00,,CLR,0.00,VWS V14.01,2013-12-18 20:03:00,
2013-12-18 14:08:00,32.6,23.2,29.67,WSW,255,2.0,5.0,68,0.00,,CLR,0.00,VWS V14.01,2013-12-18 20:08:00,
2013-12-18 14:13:00,32.5,23.1,29.67,WSW,238,2.0,5.0,68,0.00,,CLR,0.00,VWS V14.01,2013-12-18 20:13:00,
2013-12-18 14:18:00,32.5,23.1,29.67,WSW,238,3.0,5.0,68,0.00,,CLR,0.00,VWS V14.01,2013-12-18 20:18:00,
2013-12-18 14:23:00,32.5,23.1,29.67,WSW,240,3.0,5.0,68,0.00,,CLR,0.00,VWS V14.01,2013-12-18 20:23:00,
2013-12-18 14:28:00,32.5,23.1,29.67,WSW,240,3.0,3.0,68,0.00,,CLR,0.00,VWS V14.01,2013-12-18 20:28:00,
2013-12-18 14:33:00,32.7,23.3,29.67,SW,233,3.0,9.0,68,0.00,,CLR,0.00,VWS V14.01,2013-12-18 20:33:00,
2013-12-18 14:38:00,32.7,23.7,29.67,WSW,246,2.0,9.0,69,0.00,,CLR,0.00,VWS V14.01,2013-12-18 20:38:00,
2013-12-18 14:43:00,32.7,23.7,29.67,WSW,244,1.0,9.0,69,0.00,,CLR,0.00,VWS V14.01,2013-12-18 20:43:00,
2013-12-18 14:48:00,32.5,23.5,29.67,WSW,242,2.0,9.0,69,0.00,,CLR,0.00,VWS V14.01,2013-12-18 20:48:00,
2013-12-18 14:53:00,32.5,23.8,29.67,SW,223,2.0,9.0,70,0.00,,CLR,0.00,VWS V14.01,2013-12-18 20:53:00,
2013-12-18 14:58:00,32.4,23.7,29.67,SW,232,2.0,2.0,70,0.00,,CLR,0.00,VWS V14.01,2013-12-18 20:58:00,
2013-12-18 15:03:00,32.3,23.6,29.67,WSW,243,2.0,2.0,70,0.00,,CLR,0.00,VWS V14.01,2013-12-18 21:03:00,
2013-12-18 15:08:00,32.2,23.9,29.67,WSW,255,3.0,3.0,71,0.00,,CLR,0.00,VWS V14.01,2013-12-18 21:08:00,
2013-12-18 15:13:00,32.0,23.7,29.67,WSW,248,3.0,6.0,71,0.00,,CLR,0.00,VWS V14.01,2013-12-18 21:13:00,
2013-12-18 15:18:00,31.9,23.9,29.67,WSW,250,3.0,6.0,72,0.00,,CLR,0.00,VWS V14.01,2013-12-18 21:18:00,
2013-12-18 15:23:00,31.6,23.6,29.67,WSW,255,3.0,6.0,72,0.00,,CLR,0.00,VWS V14.01,2013-12-18 21:23:00,
2013-12-18 15:28:00,31.4,23.8,29.67,WSW,250,2.0,3.0,73,0.00,,CLR,0.00,VWS V14.01,2013-12-18 21:28:00,
2013-12-18 15:33:00,31.1,23.8,29.68,WSW,241,2.0,4.0,74,0.00,,CLR,0.00,VWS V14.01,2013-12-18 21:33:00,
2013-12-18 15:38:00,31.1,23.8,29.67,SW,233,2.0,4.0,74,0.00,,CLR,0.00,VWS V14.01,2013-12-18 21:38:00,
2013-12-18 15:43:00,30.9,23.6,29.67,SW,228,2.0,4.0,74,0.00,,CLR,0.00,VWS V14.01,2013-12-18 21:43:00,
2013-12-18 15:48:00,30.8,23.5,29.67,SW,232,2.0,4.0,74,0.00,,CLR,0.00,VWS V14.01,2013-12-18 21:48:00,
2013-12-18 15:53:00,30.7,23.7,29.67,SW,233,1.0,4.0,75,0.00,,CLR,0.00,VWS V14.01,2013-12-18 21:53:00,
2013-12-18 15:58:00,30.6,23.6,29.67,SW,233,1.0,1.0,75,0.00,,CLR,0.00,VWS V14.01,2013-12-18 21:58:00,
2013-12-18 16:03:00,30.4,23.4,29.67,SW,236,1.0,2.0,75,0.00,,CLR,0.00,VWS V14.01,2013-12-18 22:03:00,
2013-12-18 16:08:00,30.1,23.5,29.67,SW,235,0.0,2.0,76,0.00,,CLR,0.00,VWS V14.01,2013-12-18 22:08:00,
2013-12-18 16:13:00,30.0,23.4,29.67,SW,229,1.0,2.0,76,0.00,,CLR,0.00,VWS V14.01,2013-12-18 22:13:00,
2013-12-18 16:18:00,30.0,23.7,29.67,SW,229,1.0,2.0,77,0.00,,CLR,0.00,VWS V14.01,2013-12-18 22:18:00,
2013-12-18 16:23:00,29.7,23.1,29.67,WSW,248,1.0,2.0,76,0.00,,CLR,0.00,VWS V14.01,2013-12-18 22:23:00,
2013-12-18 16:28:00,29.2,22.9,29.68,WSW,242,1.0,1.0,77,0.00,,CLR,0.00,VWS V14.01,2013-12-18 22:28:00,
2013-12-18 16:33:00,28.9,22.9,29.68,West,262,3.0,3.0,78,0.00,,CLR,0.00,VWS V14.01,2013-12-18 22:33:00,
2013-12-18 16:38:00,28.6,22.6,29.67,WSW,256,2.0,3.0,78,0.00,,CLR,0.00,VWS V14.01,2013-12-18 22:38:00,
2013-12-18 16:43:00,28.3,22.6,29.68,WSW,245,1.0,3.0,79,0.00,,CLR,0.00,VWS V14.01,2013-12-18 22:43:00,
2013-12-18 16:48:00,28.1,22.7,29.68,WSW,250,2.0,3.0,80,0.00,,CLR,0.00,VWS V14.01,2013-12-18 22:48:00,
2013-12-18 16:53:00,28.2,22.8,29.68,WSW,252,2.0,3.0,80,0.00,,CLR,0.00,VWS V14.01,2013-12-18 22:53:00,
2013-12-18 16:58:00,28.3,22.9,29.68,West,260,1.0,2.0,80,0.00,,CLR,0.00,VWS V14.01,2013-12-18 22:58:00,
2013-12-18 17:03:00,28.1,22.7,29.68,WSW,245,1.0,3.0,80,0.00,,CLR,0.00,VWS V14.01,2013-12-18 23:03:00,
2013-12-18 17:08:00,27.9,22.8,29.69,WSW,242,3.0,3.0,81,0.00,,CLR,0.00,VWS V14.01,2013-12-18 23:08:00,
2013-12-18 17:13:00,27.7,22.6,29.69,WSW,242,2.0,3.0,81,0.00,,CLR,0.00,VWS V14.01,2013-12-18 23:13:00,
2013-12-18 17:18:00,27.8,23.0,29.69,WSW,249,1.0,3.0,82,0.00,,CLR,0.00,VWS V14.01,2013-12-18 23:18:00,
2013-12-18 17:23:00,27.9,23.1,29.69,West,259,0.0,3.0,82,0.00,,CLR,0.00,VWS V14.01,2013-12-18 23:23:00,
2013-12-18 17:28:00,27.9,23.1,29.69,West,262,0.0,1.0,82,0.00,,CLR,0.00,VWS V14.01,2013-12-18 23:28:00,
2013-12-18 17:33:00,27.8,23.0,29.69,West,276,0.0,1.0,82,0.00,,CLR,0.00,VWS V14.01,2013-12-18 23:33:00,
2013-12-18 17:38:00,27.8,23.0,29.69,West,271,0.0,1.0,82,0.00,,CLR,0.00,VWS V14.01,2013-12-18 23:38:00,
2013-12-18 17:43:00,27.8,23.0,29.69,West,274,1.0,1.0,82,0.00,,CLR,0.00,VWS V14.01,2013-12-18 23:43:00,
2013-12-18 17:48:00,27.8,23.0,29.69,West,265,0.0,2.0,82,0.00,,CLR,0.00,VWS V14.01,2013-12-18 23:48:00,
2013-12-18 17:53:00,27.8,23.0,29.70,West,273,1.0,2.0,82,0.00,,CLR,0.00,VWS V14.01,2013-12-18 23:53:00,
2013-12-18 17:58:00,27.7,22.9,29.69,WSW,252,0.0,1.0,82,0.00,,CLR,0.00,VWS V14.01,2013-12-18 23:58:00,
2013-12-18 18:03:00,27.3,22.5,29.70,WSW,242,0.0,1.0,82,0.00,,CLR,0.00,VWS V14.01,2013-12-19 00:03:00,
2013-12-18 18:08:00,27.1,22.6,29.69,SW,235,0.0,1.0,83,0.00,,CLR,0.00,VWS V14.01,2013-12-19 00:08:00,
2013-12-18 18:13:00,27.0,22.5,29.69,SW,235,0.0,1.0,83,0.00,,CLR,0.00,VWS V14.01,2013-12-19 00:13:00,
2013-12-18 18:18:00,27.0,22.8,29.69,SW,235,0.0,1.0,84,0.00,,CLR,0.00,VWS V14.01,2013-12-19 00:18:00,
2013-12-18 18:23:00,26.9,22.7,29.69,SW,235,0.0,1.0,84,0.00,,CLR,0.00,VWS V14.01,2013-12-19 00:23:00,
2013-12-18 18:28:00,26.8,22.6,29.70,SW,235,0.0,1.0,84,0.00,,CLR,0.00,VWS V14.01,2013-12-19 00:28:00,
2013-12-18 18:33:00,26.6,22.4,29.69,WSW,245,0.0,1.0,84,0.00,,CLR,0.00,VWS V14.01,2013-12-19 00:33:00,
2013-12-18 18:38:00,26.6,22.7,29.70,WSW,250,0.0,2.0,85,0.00,,CLR,0.00,VWS V14.01,2013-12-19 00:38:00,
2013-12-18 18:43:00,26.5,22.3,29.70,WSW,252,1.0,2.0,84,0.00,,CLR,0.00,VWS V14.01,2013-12-19 00:43:00,
2013-12-18 18:48:00,26.3,22.4,29.70,WSW,250,0.0,2.0,85,0.00,,CLR,0.00,VWS V14.01,2013-12-19 00:48:00,
2013-12-18 18:53:00,26.1,22.2,29.70,WSW,248,0.0,2.0,85,0.00,,CLR,0.00,VWS V14.01,2013-12-19 00:53:00,
2013-12-18 18:58:00,25.9,22.3,29.70,WSW,252,2.0,2.0,86,0.00,,CLR,0.00,VWS V14.01,2013-12-19 00:58:00,
2013-12-18 19:03:00,25.8,22.2,29.70,WSW,255,0.0,2.0,86,0.00,,CLR,0.00,VWS V14.01,2013-12-19 01:03:00,
2013-12-18 19:08:00,25.9,22.3,29.70,WSW,250,0.0,2.0,86,0.00,,CLR,0.00,VWS V14.01,2013-12-19 01:08:00,
2013-12-18 19:13:00,25.6,22.0,29.71,WSW,250,0.0,2.0,86,0.00,,CLR,0.00,VWS V14.01,2013-12-19 01:13:00,
2013-12-18 19:18:00,25.6,22.3,29.71,West,259,0.0,2.0,87,0.00,,CLR,0.00,VWS V14.01,2013-12-19 01:18:00,
2013-12-18 19:23:00,25.7,22.4,29.71,WSW,253,0.0,2.0,87,0.00,,CLR,0.00,VWS V14.01,2013-12-19 01:23:00,
2013-12-18 19:28:00,25.7,22.4,29.71,West,264,0.0,0.0,87,0.00,,CLR,0.00,VWS V14.01,2013-12-19 01:28:00,
2013-12-18 19:33:00,25.7,22.4,29.71,West,264,0.0,1.0,87,0.00,,CLR,0.00,VWS V14.01,2013-12-19 01:33:00,
2013-12-18 19:38:00,25.7,22.4,29.71,West,269,0.0,1.0,87,0.00,,CLR,0.00,VWS V14.01,2013-12-19 01:38:00,
2013-12-18 19:43:00,25.7,22.4,29.72,West,269,0.0,1.0,87,0.00,,CLR,0.00,VWS V14.01,2013-12-19 01:43:00,
2013-12-18 19:48:00,25.4,22.1,29.72,West,259,0.0,1.0,87,0.00,,CLR,0.00,VWS V14.01,2013-12-19 01:48:00,
2013-12-18 19:53:00,25.3,22.0,29.72,West,259,0.0,1.0,87,0.00,,CLR,0.00,VWS V14.01,2013-12-19 01:53:00,
2013-12-18 19:58:00,25.2,22.1,29.72,WSW,255,0.0,0.0,88,0.00,,CLR,0.00,VWS V14.01,2013-12-19 01:58:00,
2013-12-18 20:03:00,25.2,22.1,29.72,WSW,254,0.0,1.0,88,0.00,,CLR,0.00,VWS V14.01,2013-12-19 02:03:00,
2013-12-18 20:08:00,25.3,22.2,29.72,West,260,0.0,1.0,88,0.00,,CLR,0.00,VWS V14.01,2013-12-19 02:08:00,
2013-12-18 20:13:00,25.3,22.2,29.72,West,260,0.0,1.0,88,0.00,,CLR,0.00,VWS V14.01,2013-12-19 02:13:00,
2013-12-18 20:18:00,25.3,22.2,29.72,West,260,0.0,1.0,88,0.00,,CLR,0.00,VWS V14.01,2013-12-19 02:18:00,
2013-12-18 20:23:00,25.3,22.2,29.72,West,260,0.0,1.0,88,0.00,,CLR,0.00,VWS V14.01,2013-12-19 02:23:00,
2013-12-18 20:28:00,25.1,22.0,29.72,West,260,0.0,0.0,88,0.00,,CLR,0.00,VWS V14.01,2013-12-19 02:28:00,
2013-12-18 20:33:00,25.0,22.0,29.72,West,260,0.0,0.0,88,0.00,,CLR,0.00,VWS V14.01,2013-12-19 02:33:00,
2013-12-18 20:38:00,24.9,22.1,29.72,West,260,0.0,0.0,89,0.00,,CLR,0.00,VWS V14.01,2013-12-19 02:38:00,
2013-12-18 20:43:00,24.9,22.1,29.73,West,260,0.0,1.0,89,0.00,,CLR,0.00,VWS V14.01,2013-12-19 02:43:00,
2013-12-18 20:48:00,24.7,21.7,29.73,West,260,0.0,1.0,88,0.00,,CLR,0.00,VWS V14.01,2013-12-19 02:48:00,
2013-12-18 20:53:00,24.4,21.6,29.73,WSW,248,2.0,2.0,89,0.00,,CLR,0.00,VWS V14.01,2013-12-19 02:53:00,
2013-12-18 20:58:00,24.5,22.0,29.73,West,259,3.0,3.0,90,0.00,,CLR,0.00,VWS V14.01,2013-12-19 02:58:00,
2013-12-18 21:03:00,24.4,21.9,29.74,West,276,1.0,3.0,90,0.00,,CLR,0.00,VWS V14.01,2013-12-19 03:03:00,
2013-12-18 21:08:00,24.4,21.9,29.74,West,263,0.0,3.0,90,0.00,,CLR,0.00,VWS V14.01,2013-12-19 03:08:00,
2013-12-18 21:13:00,24.3,21.8,29.74,West,263,1.0,3.0,90,0.00,,CLR,0.00,VWS V14.01,2013-12-19 03:13:00,
2013-12-18 21:18:00,24.0,21.2,29.74,West,277,1.0,3.0,89,0.00,,CLR,0.00,VWS V14.01,2013-12-19 03:18:00,
2013-12-18 21:23:00,24.1,21.9,29.74,West,276,1.0,3.0,91,0.00,,CLR,0.00,VWS V14.01,2013-12-19 03:23:00,
2013-12-18 21:28:00,24.2,22.0,29.74,West,276,1.0,1.0,91,0.00,,CLR,0.00,VWS V14.01,2013-12-19 03:28:00,
2013-12-18 21:33:00,24.2,22.0,29.74,WNW,285,1.0,2.0,91,0.00,,CLR,0.00,VWS V14.01,2013-12-19 03:33:00,
2013-12-18 21:38:00,24.0,21.8,29.75,West,278,0.0,2.0,91,0.00,,CLR,0.00,VWS V14.01,2013-12-19 03:38:00,
2013-12-18 21:43:00,24.0,21.8,29.75,West,278,0.0,2.0,91,0.00,,CLR,0.00,VWS V14.01,2013-12-19 03:43:00,
2013-12-18 21:48:00,24.0,21.8,29.76,West,269,1.0,2.0,91,0.00,,CLR,0.00,VWS V14.01,2013-12-19 03:48:00,
2013-12-18 21:53:00,23.8,21.6,29.76,WSW,254,2.0,2.0,91,0.00,,CLR,0.00,VWS V14.01,2013-12-19 03:53:00,
2013-12-18 21:58:00,23.2,21.0,29.77,WSW,257,2.0,3.0,91,0.00,,CLR,0.00,VWS V14.01,2013-12-19 03:58:00,
2013-12-18 22:03:00,22.8,20.8,29.77,West,281,0.0,3.0,92,0.00,,CLR,0.00,VWS V14.01,2013-12-19 04:03:00,
2013-12-18 22:08:00,23.0,21.0,29.77,West,277,2.0,3.0,92,0.00,,CLR,0.00,VWS V14.01,2013-12-19 04:08:00,
2013-12-18 22:13:00,23.0,21.0,29.78,WNW,285,0.0,3.0,92,0.00,,CLR,0.00,VWS V14.01,2013-12-19 04:13:00,
2013-12-18 22:18:00,23.2,21.5,29.78,WNW,291,1.0,3.0,93,0.00,,CLR,0.00,VWS V14.01,2013-12-19 04:18:00,
2013-12-18 22:23:00,23.3,21.3,29.78,WNW,295,1.0,3.0,92,0.00,,CLR,0.00,VWS V14.01,2013-12-19 04:23:00,
2013-12-18 22:28:00,23.4,21.4,29.79,WNW,295,2.0,2.0,92,0.00,,CLR,0.00,VWS V14.01,2013-12-19 04:28:00,
2013-12-18 22:33:00,23.4,21.2,29.79,WNW,300,2.0,2.0,91,0.00,,CLR,0.00,VWS V14.01,2013-12-19 04:33:00,
2013-12-18 22:38:00,23.5,21.3,29.79,WNW,295,1.0,4.0,91,0.00,,CLR,0.00,VWS V14.01,2013-12-19 04:38:00,
2013-12-18 22:43:00,23.5,21.3,29.79,WNW,295,1.0,4.0,91,0.00,,CLR,0.00,VWS V14.01,2013-12-19 04:43:00,
2013-12-18 22:48:00,23.6,21.4,29.80,WNW,296,2.0,4.0,91,0.00,,CLR,0.00,VWS V14.01,2013-12-19 04:48:00,
2013-12-18 22:53:00,23.5,21.0,29.80,WNW,292,1.0,4.0,90,0.00,,CLR,0.00,VWS V14.01,2013-12-19 04:53:00,
2013-12-18 22:58:00,23.4,20.9,29.81,WNW,295,1.0,1.0,90,0.00,,CLR,0.00,VWS V14.01,2013-12-19 04:58:00,
2013-12-18 23:01:00,23.4,20.9,29.81,WNW,297,1.0,3.0,90,0.00,,CLR,0.00,VWS V14.01,2013-12-19 05:01:00,
2013-12-18 23:06:00,23.4,20.9,29.82,WNW,295,3.0,3.0,90,0.00,,CLR,0.00,VWS V14.01,2013-12-19 05:06:00,
2013-12-18 23:11:00,23.2,20.7,29.82,WNW,295,2.0,3.0,90,0.00,,CLR,0.00,VWS V14.01,2013-12-19 05:11:00,
2013-12-18 23:16:00,23.1,20.6,29.81,WNW,295,1.0,3.0,90,0.00,,CLR,0.00,VWS V14.01,2013-12-19 05:16:00,
2013-12-18 23:21:00,23.0,20.5,29.81,WNW,302,0.0,3.0,90,0.00,,CLR,0.00,VWS V14.01,2013-12-19 05:21:00,
2013-12-18 23:26:00,22.8,20.3,29.82,WNW,291,1.0,3.0,90,0.00,,CLR,0.00,VWS V14.01,2013-12-19 05:26:00,
2013-12-18 23:31:00,22.7,20.2,29.82,WNW,290,1.0,2.0,90,0.00,,CLR,0.00,VWS V14.01,2013-12-19 05:31:00,
2013-12-18 23:36:00,22.5,20.0,29.83,NW,307,2.0,2.0,90,0.00,,CLR,0.00,VWS V14.01,2013-12-19 05:36:00,
2013-12-18 23:41:00,22.5,20.0,29.83,WNW,298,1.0,2.0,90,0.00,,CLR,0.00,VWS V14.01,2013-12-19 05:41:00,
2013-12-18 23:46:00,22.4,19.9,29.83,WNW,302,1.0,3.0,90,0.00,,CLR,0.00,VWS V14.01,2013-12-19 05:46:00,
2013-12-18 23:51:00,22.3,19.8,29.83,NW,307,2.0,3.0,90,0.00,,CLR,0.00,VWS V14.01,2013-12-19 05:51:00,
2013-12-18 23:56:00,22.4,19.9,29.83,NW,314,1.0,3.0,90,0.00,,CLR,0.00,VWS V14.01,2013-12-19 05:56:00,